Terminal Aerodrome Forecast
Issued by NWS Central Illinois

Home | Current Version | Previous Version | Text Only | Print | Product List | Glossary On
Versions: 1 2 3 4 5 6 7 8 9 10 11 12 13 14 15 16 17
000
FTUS43 KILX 021700
TAFSPI
TAF
KSPI 021735Z 0218/0318 VRB04KT P6SM SCT100 BKN200
     FM030400 13010KT P6SM OVC090
     FM030800 15013KT 6SM -FZRAPL BR SCT012 OVC025
     FM031500 16016KT P6SM OVC025
      TEMPO 0315/0318 6SM -RA BR OVC025=

USA.gov is the U.S. government's official web portal to all federal, state and local government web resources and services.